sensor_id;sensor_type;location;lat;lon;timestamp;temperature;humidity
24450;DHT22;13349;50.984;5.822;2024-01-30T00:00:24;9.90;1.00
24450;DHT22;13349;50.984;5.822;2024-01-30T00:02:52;9.90;1.00
24450;DHT22;13349;50.984;5.822;2024-01-30T00:05:19;9.80;1.00
24450;DHT22;13349;50.984;5.822;2024-01-30T00:07:46;9.80;1.00
24450;DHT22;13349;50.984;5.822;2024-01-30T00:10:13;9.80;1.00
24450;DHT22;13349;50.984;5.822;2024-01-30T00:12:40;9.70;43.10
24450;DHT22;13349;50.984;5.822;2024-01-30T00:15:07;9.70;99.90
24450;DHT22;13349;50.984;5.822;2024-01-30T00:17:35;9.70;99.90
24450;DHT22;13349;50.984;5.822;2024-01-30T00:20:04;9.60;99.90
24450;DHT22;13349;50.984;5.822;2024-01-30T00:22:32;9.70;99.90
24450;DHT22;13349;50.984;5.822;2024-01-30T00:24:59;9.70;99.90
24450;DHT22;13349;50.984;5.822;2024-01-30T00:27:26;9.70;99.90
24450;DHT22;13349;50.984;5.822;2024-01-30T00:29:53;9.80;99.90
24450;DHT22;13349;50.984;5.822;2024-01-30T00:32:20;9.70;99.90
24450;DHT22;13349;50.984;5.822;2024-01-30T00:34:48;9.80;99.90
24450;DHT22;13349;50.984;5.822;2024-01-30T00:37:17;9.80;99.90
24450;DHT22;13349;50.984;5.822;2024-01-30T00:39:44;9.80;99.90
24450;DHT22;13349;50.984;5.822;2024-01-30T00:42:10;9.90;99.90
24450;DHT22;13349;50.984;5.822;2024-01-30T00:44:37;9.80;99.90
24450;DHT22;13349;50.984;5.822;2024-01-30T00:47:04;9.90;99.90
24450;DHT22;13349;50.984;5.822;2024-01-30T00:49:31;9.90;99.90
24450;DHT22;13349;50.984;5.822;2024-01-30T00:51:58;9.90;99.90
24450;DHT22;13349;50.984;5.822;2024-01-30T00:54:26;9.80;99.90
24450;DHT22;13349;50.984;5.822;2024-01-30T00:56:53;9.90;99.90
24450;DHT22;13349;50.984;5.822;2024-01-30T00:59:20;10.00;99.90
24450;DHT22;13349;50.984;5.822;2024-01-30T01:01:47;10.00;99.90
24450;DHT22;13349;50.984;5.822;2024-01-30T01:04:14;10.10;99.90
24450;DHT22;13349;50.984;5.822;2024-01-30T01:06:41;10.20;94.00
24450;DHT22;13349;50.984;5.822;2024-01-30T01:09:10;10.00;77.90
24450;DHT22;13349;50.984;5.822;2024-01-30T01:11:38;10.10;28.10
24450;DHT22;13349;50.984;5.822;2024-01-30T01:14:05;10.00;39.70
24450;DHT22;13349;50.984;5.822;2024-01-30T01:16:32;10.00;81.00
24450;DHT22;13349;50.984;5.822;2024-01-30T01:18:59;10.00;84.90
24450;DHT22;13349;50.984;5.822;2024-01-30T01:21:27;10.10;45.00
24450;DHT22;13349;50.984;5.822;2024-01-30T01:23:54;10.20;1.00
24450;DHT22;13349;50.984;5.822;2024-01-30T01:26:21;10.20;1.00
24450;DHT22;13349;50.984;5.822;2024-01-30T01:28:49;10.20;1.00
24450;DHT22;13349;50.984;5.822;2024-01-30T01:31:16;10.30;1.00
24450;DHT22;13349;50.984;5.822;2024-01-30T01:33:43;10.30;1.00
24450;DHT22;13349;50.984;5.822;2024-01-30T01:36:10;10.30;1.00
24450;DHT22;13349;50.984;5.822;2024-01-30T01:38:37;10.20;1.00
24450;DHT22;13349;50.984;5.822;2024-01-30T01:41:04;10.20;1.00
24450;DHT22;13349;50.984;5.822;2024-01-30T01:43:31;10.30;1.00
24450;DHT22;13349;50.984;5.822;2024-01-30T01:45:59;10.30;1.00
24450;DHT22;13349;50.984;5.822;2024-01-30T01:48:27;10.20;1.00
24450;DHT22;13349;50.984;5.822;2024-01-30T01:50:53;10.20;1.00
24450;DHT22;13349;50.984;5.822;2024-01-30T01:53:20;10.10;1.00
24450;DHT22;13349;50.984;5.822;2024-01-30T01:55:48;10.20;1.00
24450;DHT22;13349;50.984;5.822;2024-01-30T01:58:15;10.20;1.00
24450;DHT22;13349;50.984;5.822;2024-01-30T02:00:42;10.10;1.00
24450;DHT22;13349;50.984;5.822;2024-01-30T02:03:11;10.10;1.00
24450;DHT22;13349;50.984;5.822;2024-01-30T02:05:39;10.00;1.00
24450;DHT22;13349;50.984;5.822;2024-01-30T02:08:08;10.10;1.00
24450;DHT22;13349;50.984;5.822;2024-01-30T02:10:35;10.10;1.00
24450;DHT22;13349;50.984;5.822;2024-01-30T02:13:02;10.10;1.00
24450;DHT22;13349;50.984;5.822;2024-01-30T02:15:30;10.20;1.00
24450;DHT22;13349;50.984;5.822;2024-01-30T02:17:56;10.30;1.00
24450;DHT22;13349;50.984;5.822;2024-01-30T02:20:25;10.40;1.00
24450;DHT22;13349;50.984;5.822;2024-01-30T02:22:56;10.50;1.00
24450;DHT22;13349;50.984;5.822;2024-01-30T02:25:30;10.60;1.00
24450;DHT22;13349;50.984;5.822;2024-01-30T02:27:57;10.70;1.00
24450;DHT22;13349;50.984;5.822;2024-01-30T02:30:23;10.70;1.00
24450;DHT22;13349;50.984;5.822;2024-01-30T02:32:50;10.70;1.00
24450;DHT22;13349;50.984;5.822;2024-01-30T02:35:17;10.70;1.00
24450;DHT22;13349;50.984;5.822;2024-01-30T02:37:44;10.70;1.00
24450;DHT22;13349;50.984;5.822;2024-01-30T02:40:12;10.70;1.00
24450;DHT22;13349;50.984;5.822;2024-01-30T02:42:39;10.60;1.00
24450;DHT22;13349;50.984;5.822;2024-01-30T02:45:06;10.70;1.00
24450;DHT22;13349;50.984;5.822;2024-01-30T02:47:33;10.80;1.00
24450;DHT22;13349;50.984;5.822;2024-01-30T02:50:00;10.70;1.00
24450;DHT22;13349;50.984;5.822;2024-01-30T02:52:26;10.80;1.00
24450;DHT22;13349;50.984;5.822;2024-01-30T02:54:53;10.80;1.00
24450;DHT22;13349;50.984;5.822;2024-01-30T02:57:22;10.70;1.00
24450;DHT22;13349;50.984;5.822;2024-01-30T02:59:49;10.70;1.00
24450;DHT22;13349;50.984;5.822;2024-01-30T03:02:16;10.70;1.00
24450;DHT22;13349;50.984;5.822;2024-01-30T03:04:42;10.60;1.00
24450;DHT22;13349;50.984;5.822;2024-01-30T03:07:09;10.70;1.00
24450;DHT22;13349;50.984;5.822;2024-01-30T03:09:36;10.90;1.00
24450;DHT22;13349;50.984;5.822;2024-01-30T03:12:04;11.00;1.00
24450;DHT22;13349;50.984;5.822;2024-01-30T03:14:32;10.90;1.00
24450;DHT22;13349;50.984;5.822;2024-01-30T03:16:59;11.00;1.00
24450;DHT22;13349;50.984;5.822;2024-01-30T03:19:26;10.90;1.00
24450;DHT22;13349;50.984;5.822;2024-01-30T03:21:53;10.80;1.00
24450;DHT22;13349;50.984;5.822;2024-01-30T03:24:20;11.00;1.00
24450;DHT22;13349;50.984;5.822;2024-01-30T03:26:47;11.10;1.00
24450;DHT22;13349;50.984;5.822;2024-01-30T03:29:14;11.10;1.00
24450;DHT22;13349;50.984;5.822;2024-01-30T03:31:42;11.30;1.00
24450;DHT22;13349;50.984;5.822;2024-01-30T03:34:09;11.20;1.00
24450;DHT22;13349;50.984;5.822;2024-01-30T03:36:36;11.20;1.00
24450;DHT22;13349;50.984;5.822;2024-01-30T03:39:03;11.20;1.00
24450;DHT22;13349;50.984;5.822;2024-01-30T03:41:30;11.30;1.00
24450;DHT22;13349;50.984;5.822;2024-01-30T03:43:57;11.40;1.00
24450;DHT22;13349;50.984;5.822;2024-01-30T03:46:24;11.30;1.00
24450;DHT22;13349;50.984;5.822;2024-01-30T03:48:52;11.20;1.00
24450;DHT22;13349;50.984;5.822;2024-01-30T03:51:19;11.30;1.00
24450;DHT22;13349;50.984;5.822;2024-01-30T03:53:46;11.30;1.00
24450;DHT22;13349;50.984;5.822;2024-01-30T03:56:13;11.30;1.00
24450;DHT22;13349;50.984;5.822;2024-01-30T03:58:40;11.40;1.00
24450;DHT22;13349;50.984;5.822;2024-01-30T04:01:07;11.40;1.00
24450;DHT22;13349;50.984;5.822;2024-01-30T04:03:39;11.50;1.00
24450;DHT22;13349;50.984;5.822;2024-01-30T04:06:07;11.40;1.00
24450;DHT22;13349;50.984;5.822;2024-01-30T04:08:34;11.50;1.00
24450;DHT22;13349;50.984;5.822;2024-01-30T04:11:03;11.50;1.00
24450;DHT22;13349;50.984;5.822;2024-01-30T04:13:30;11.40;1.00
24450;DHT22;13349;50.984;5.822;2024-01-30T04:15:57;11.30;1.00
24450;DHT22;13349;50.984;5.822;2024-01-30T04:18:24;11.40;1.00
24450;DHT22;13349;50.984;5.822;2024-01-30T04:20:51;11.30;1.00
24450;DHT22;13349;50.984;5.822;2024-01-30T04:23:19;11.20;1.00
24450;DHT22;13349;50.984;5.822;2024-01-30T04:25:46;11.20;1.00
24450;DHT22;13349;50.984;5.822;2024-01-30T04:28:13;11.20;1.00
24450;DHT22;13349;50.984;5.822;2024-01-30T04:30:40;11.30;1.00
24450;DHT22;13349;50.984;5.822;2024-01-30T04:33:06;11.20;1.00
24450;DHT22;13349;50.984;5.822;2024-01-30T04:35:33;11.10;1.00
24450;DHT22;13349;50.984;5.822;2024-01-30T04:38:00;11.10;1.00
24450;DHT22;13349;50.984;5.822;2024-01-30T04:40:29;11.10;1.00
24450;DHT22;13349;50.984;5.822;2024-01-30T04:42:56;11.20;1.00
24450;DHT22;13349;50.984;5.822;2024-01-30T04:45:23;11.30;1.00
24450;DHT22;13349;50.984;5.822;2024-01-30T04:47:50;11.40;1.00
24450;DHT22;13349;50.984;5.822;2024-01-30T04:50:16;11.50;1.00
24450;DHT22;13349;50.984;5.822;2024-01-30T04:52:44;11.50;1.00
24450;DHT22;13349;50.984;5.822;2024-01-30T04:55:11;11.40;1.00
24450;DHT22;13349;50.984;5.822;2024-01-30T04:57:39;11.50;1.00
24450;DHT22;13349;50.984;5.822;2024-01-30T05:00:06;11.60;1.00
24450;DHT22;13349;50.984;5.822;2024-01-30T05:02:34;11.70;1.00
24450;DHT22;13349;50.984;5.822;2024-01-30T05:05:01;11.80;1.00
24450;DHT22;13349;50.984;5.822;2024-01-30T05:07:28;11.70;1.00
24450;DHT22;13349;50.984;5.822;2024-01-30T05:09:55;11.60;1.00
24450;DHT22;13349;50.984;5.822;2024-01-30T05:12:22;11.60;1.00
24450;DHT22;13349;50.984;5.822;2024-01-30T05:14:50;11.50;1.00
24450;DHT22;13349;50.984;5.822;2024-01-30T05:17:17;11.50;1.00
24450;DHT22;13349;50.984;5.822;2024-01-30T05:19:44;11.50;1.00
24450;DHT22;13349;50.984;5.822;2024-01-30T05:22:11;11.50;1.00
24450;DHT22;13349;50.984;5.822;2024-01-30T05:24:41;11.50;1.00
24450;DHT22;13349;50.984;5.822;2024-01-30T05:27:08;11.50;1.00
24450;DHT22;13349;50.984;5.822;2024-01-30T05:29:35;11.50;1.00
24450;DHT22;13349;50.984;5.822;2024-01-30T05:32:03;11.50;1.00
24450;DHT22;13349;50.984;5.822;2024-01-30T05:34:30;11.50;1.00
24450;DHT22;13349;50.984;5.822;2024-01-30T05:36:57;11.50;1.00
24450;DHT22;13349;50.984;5.822;2024-01-30T05:39:24;11.50;1.00
24450;DHT22;13349;50.984;5.822;2024-01-30T05:41:51;11.40;1.00
24450;DHT22;13349;50.984;5.822;2024-01-30T05:44:18;11.40;1.00
24450;DHT22;13349;50.984;5.822;2024-01-30T05:46:45;11.50;1.00
24450;DHT22;13349;50.984;5.822;2024-01-30T05:49:13;11.40;1.00
24450;DHT22;13349;50.984;5.822;2024-01-30T05:51:40;11.40;1.00
24450;DHT22;13349;50.984;5.822;2024-01-30T05:54:07;11.40;1.00
24450;DHT22;13349;50.984;5.822;2024-01-30T05:56:34;11.50;1.00
24450;DHT22;13349;50.984;5.822;2024-01-30T05:59:01;11.30;1.00
24450;DHT22;13349;50.984;5.822;2024-01-30T06:01:28;11.20;1.00
24450;DHT22;13349;50.984;5.822;2024-01-30T06:03:55;11.30;1.00
24450;DHT22;13349;50.984;5.822;2024-01-30T06:06:23;11.20;1.00
24450;DHT22;13349;50.984;5.822;2024-01-30T06:08:50;11.30;1.00
24450;DHT22;13349;50.984;5.822;2024-01-30T06:11:17;11.30;1.00
24450;DHT22;13349;50.984;5.822;2024-01-30T06:13:44;11.30;1.00
24450;DHT22;13349;50.984;5.822;2024-01-30T06:16:11;11.40;1.00
24450;DHT22;13349;50.984;5.822;2024-01-30T06:18:38;11.40;1.00
24450;DHT22;13349;50.984;5.822;2024-01-30T06:21:05;11.30;1.00
24450;DHT22;13349;50.984;5.822;2024-01-30T06:23:33;11.30;1.00
24450;DHT22;13349;50.984;5.822;2024-01-30T06:26:00;11.30;1.00
24450;DHT22;13349;50.984;5.822;2024-01-30T06:28:27;11.30;7.70
24450;DHT22;13349;50.984;5.822;2024-01-30T06:30:54;11.20;49.40
24450;DHT22;13349;50.984;5.822;2024-01-30T06:33:20;11.20;99.90
24450;DHT22;13349;50.984;5.822;2024-01-30T06:35:48;11.20;99.90
24450;DHT22;13349;50.984;5.822;2024-01-30T06:38:14;11.20;99.90
24450;DHT22;13349;50.984;5.822;2024-01-30T06:40:43;11.20;99.90
24450;DHT22;13349;50.984;5.822;2024-01-30T06:43:10;11.30;99.90
24450;DHT22;13349;50.984;5.822;2024-01-30T06:45:37;11.20;99.90
24450;DHT22;13349;50.984;5.822;2024-01-30T06:48:04;11.10;99.90
24450;DHT22;13349;50.984;5.822;2024-01-30T06:50:31;11.10;99.90
24450;DHT22;13349;50.984;5.822;2024-01-30T06:52:58;11.30;99.90
24450;DHT22;13349;50.984;5.822;2024-01-30T06:55:25;11.40;99.90
24450;DHT22;13349;50.984;5.822;2024-01-30T06:57:53;11.40;99.90
24450;DHT22;13349;50.984;5.822;2024-01-30T07:00:20;11.40;99.90
24450;DHT22;13349;50.984;5.822;2024-01-30T07:02:47;11.40;99.90
24450;DHT22;13349;50.984;5.822;2024-01-30T07:05:14;11.50;99.90
24450;DHT22;13349;50.984;5.822;2024-01-30T07:07:42;11.50;99.90
24450;DHT22;13349;50.984;5.822;2024-01-30T07:10:09;11.50;99.90
24450;DHT22;13349;50.984;5.822;2024-01-30T07:12:36;11.50;99.90
24450;DHT22;13349;50.984;5.822;2024-01-30T07:15:05;11.40;99.90
24450;DHT22;13349;50.984;5.822;2024-01-30T07:17:33;11.30;99.90
24450;DHT22;13349;50.984;5.822;2024-01-30T07:20:00;11.30;99.90
24450;DHT22;13349;50.984;5.822;2024-01-30T07:22:28;11.30;99.90
24450;DHT22;13349;50.984;5.822;2024-01-30T07:24:55;11.40;99.90
24450;DHT22;13349;50.984;5.822;2024-01-30T07:27:22;11.40;99.90
24450;DHT22;13349;50.984;5.822;2024-01-30T07:29:49;11.30;99.90
24450;DHT22;13349;50.984;5.822;2024-01-30T07:32:17;11.30;1.00
24450;DHT22;13349;50.984;5.822;2024-01-30T07:34:45;11.30;1.00
24450;DHT22;13349;50.984;5.822;2024-01-30T07:37:12;11.40;1.00
24450;DHT22;13349;50.984;5.822;2024-01-30T07:39:41;11.40;1.00
24450;DHT22;13349;50.984;5.822;2024-01-30T07:42:08;11.40;1.00
24450;DHT22;13349;50.984;5.822;2024-01-30T07:44:35;11.50;1.00
24450;DHT22;13349;50.984;5.822;2024-01-30T07:47:02;11.30;1.00
24450;DHT22;13349;50.984;5.822;2024-01-30T07:49:31;11.40;1.00
24450;DHT22;13349;50.984;5.822;2024-01-30T07:51:58;11.30;1.00
24450;DHT22;13349;50.984;5.822;2024-01-30T07:54:30;11.20;1.00
24450;DHT22;13349;50.984;5.822;2024-01-30T07:56:58;11.30;1.00
24450;DHT22;13349;50.984;5.822;2024-01-30T07:59:25;11.30;1.00
24450;DHT22;13349;50.984;5.822;2024-01-30T08:02:04;11.40;1.00
24450;DHT22;13349;50.984;5.822;2024-01-30T08:04:32;11.30;1.00
24450;DHT22;13349;50.984;5.822;2024-01-30T08:06:59;11.40;1.00
24450;DHT22;13349;50.984;5.822;2024-01-30T08:09:26;11.40;1.00
24450;DHT22;13349;50.984;5.822;2024-01-30T08:11:53;11.30;1.00
24450;DHT22;13349;50.984;5.822;2024-01-30T08:14:20;11.40;1.00
24450;DHT22;13349;50.984;5.822;2024-01-30T08:16:47;11.30;1.00
24450;DHT22;13349;50.984;5.822;2024-01-30T08:19:14;11.40;1.00
24450;DHT22;13349;50.984;5.822;2024-01-30T08:21:42;11.30;1.00
24450;DHT22;13349;50.984;5.822;2024-01-30T08:24:09;11.30;1.00
24450;DHT22;13349;50.984;5.822;2024-01-30T08:26:36;11.20;1.00
24450;DHT22;13349;50.984;5.822;2024-01-30T08:29:03;11.20;1.00
24450;DHT22;13349;50.984;5.822;2024-01-30T08:31:29;11.20;1.00
24450;DHT22;13349;50.984;5.822;2024-01-30T08:33:56;11.20;1.00
24450;DHT22;13349;50.984;5.822;2024-01-30T08:36:24;11.20;35.90
24450;DHT22;13349;50.984;5.822;2024-01-30T08:38:53;11.20;94.80
24450;DHT22;13349;50.984;5.822;2024-01-30T08:41:20;11.30;99.90
24450;DHT22;13349;50.984;5.822;2024-01-30T08:43:47;11.40;99.90
24450;DHT22;13349;50.984;5.822;2024-01-30T08:46:17;11.50;99.90
24450;DHT22;13349;50.984;5.822;2024-01-30T08:48:44;11.50;99.90
24450;DHT22;13349;50.984;5.822;2024-01-30T08:51:11;11.60;62.50
24450;DHT22;13349;50.984;5.822;2024-01-30T08:53:38;11.70;44.40
24450;DHT22;13349;50.984;5.822;2024-01-30T08:56:07;11.70;1.00
24450;DHT22;13349;50.984;5.822;2024-01-30T08:58:34;11.80;1.00
24450;DHT22;13349;50.984;5.822;2024-01-30T09:01:01;11.80;1.00
24450;DHT22;13349;50.984;5.822;2024-01-30T09:03:29;11.90;1.00
24450;DHT22;13349;50.984;5.822;2024-01-30T09:05:56;12.00;1.00
24450;DHT22;13349;50.984;5.822;2024-01-30T09:08:23;12.00;1.00
24450;DHT22;13349;50.984;5.822;2024-01-30T09:10:50;12.00;1.00
24450;DHT22;13349;50.984;5.822;2024-01-30T09:13:18;12.00;1.00
24450;DHT22;13349;50.984;5.822;2024-01-30T09:15:47;12.10;1.00
24450;DHT22;13349;50.984;5.822;2024-01-30T09:18:14;12.00;99.90
24450;DHT22;13349;50.984;5.822;2024-01-30T09:20:40;12.00;99.90
24450;DHT22;13349;50.984;5.822;2024-01-30T09:23:07;11.90;99.90
24450;DHT22;13349;50.984;5.822;2024-01-30T09:25:33;11.90;99.90
24450;DHT22;13349;50.984;5.822;2024-01-30T09:28:00;11.90;99.90
24450;DHT22;13349;50.984;5.822;2024-01-30T09:30:29;12.00;99.90
24450;DHT22;13349;50.984;5.822;2024-01-30T09:32:55;12.10;99.90
24450;DHT22;13349;50.984;5.822;2024-01-30T09:35:22;12.10;99.90
24450;DHT22;13349;50.984;5.822;2024-01-30T09:37:49;12.20;99.90
24450;DHT22;13349;50.984;5.822;2024-01-30T09:40:17;12.20;99.90
24450;DHT22;13349;50.984;5.822;2024-01-30T09:42:45;12.20;99.90
24450;DHT22;13349;50.984;5.822;2024-01-30T09:45:13;12.20;99.90
24450;DHT22;13349;50.984;5.822;2024-01-30T09:47:42;12.10;99.90
24450;DHT22;13349;50.984;5.822;2024-01-30T09:50:09;12.20;99.90
24450;DHT22;13349;50.984;5.822;2024-01-30T09:52:36;12.10;99.90
24450;DHT22;13349;50.984;5.822;2024-01-30T09:55:04;12.10;99.90
24450;DHT22;13349;50.984;5.822;2024-01-30T09:57:31;12.10;99.90
24450;DHT22;13349;50.984;5.822;2024-01-30T09:59:58;12.20;99.90
24450;DHT22;13349;50.984;5.822;2024-01-30T10:02:25;12.20;99.90
24450;DHT22;13349;50.984;5.822;2024-01-30T10:04:53;12.20;99.90
24450;DHT22;13349;50.984;5.822;2024-01-30T10:07:20;12.20;99.90
24450;DHT22;13349;50.984;5.822;2024-01-30T10:09:47;12.30;99.90
24450;DHT22;13349;50.984;5.822;2024-01-30T10:12:15;12.40;99.90
24450;DHT22;13349;50.984;5.822;2024-01-30T10:14:42;12.50;99.90
24450;DHT22;13349;50.984;5.822;2024-01-30T10:17:09;12.50;99.90
24450;DHT22;13349;50.984;5.822;2024-01-30T10:19:36;12.50;99.90
24450;DHT22;13349;50.984;5.822;2024-01-30T10:22:05;12.50;99.90
24450;DHT22;13349;50.984;5.822;2024-01-30T10:24:33;12.50;99.90
24450;DHT22;13349;50.984;5.822;2024-01-30T10:27:00;12.60;99.90
24450;DHT22;13349;50.984;5.822;2024-01-30T10:29:27;12.60;99.90
24450;DHT22;13349;50.984;5.822;2024-01-30T10:32:00;12.60;99.90
24450;DHT22;13349;50.984;5.822;2024-01-30T10:34:27;12.60;99.90
24450;DHT22;13349;50.984;5.822;2024-01-30T10:37:04;12.60;95.20
24450;DHT22;13349;50.984;5.822;2024-01-30T10:39:39;12.70;99.90
24450;DHT22;13349;50.984;5.822;2024-01-30T10:42:07;12.70;99.90
24450;DHT22;13349;50.984;5.822;2024-01-30T10:44:36;12.60;99.90
24450;DHT22;13349;50.984;5.822;2024-01-30T10:47:05;12.60;99.90
24450;DHT22;13349;50.984;5.822;2024-01-30T10:49:33;12.50;99.90
24450;DHT22;13349;50.984;5.822;2024-01-30T10:52:01;12.50;1.00
24450;DHT22;13349;50.984;5.822;2024-01-30T10:54:28;12.50;1.00
24450;DHT22;13349;50.984;5.822;2024-01-30T10:56:57;12.50;1.00
24450;DHT22;13349;50.984;5.822;2024-01-30T10:59:24;12.50;1.00
24450;DHT22;13349;50.984;5.822;2024-01-30T11:01:51;12.60;1.00
24450;DHT22;13349;50.984;5.822;2024-01-30T11:04:18;12.60;1.00
24450;DHT22;13349;50.984;5.822;2024-01-30T11:06:46;12.60;1.00
24450;DHT22;13349;50.984;5.822;2024-01-30T11:09:16;12.60;1.00
24450;DHT22;13349;50.984;5.822;2024-01-30T11:11:50;12.70;1.00
24450;DHT22;13349;50.984;5.822;2024-01-30T11:14:23;12.60;1.00
24450;DHT22;13349;50.984;5.822;2024-01-30T11:16:51;12.50;1.00
24450;DHT22;13349;50.984;5.822;2024-01-30T11:19:30;12.40;1.00
24450;DHT22;13349;50.984;5.822;2024-01-30T11:21:57;12.30;40.00
24450;DHT22;13349;50.984;5.822;2024-01-30T11:24:24;12.30;99.90
24450;DHT22;13349;50.984;5.822;2024-01-30T11:26:55;12.40;99.90
24450;DHT22;13349;50.984;5.822;2024-01-30T11:29:25;12.40;1.00
24450;DHT22;13349;50.984;5.822;2024-01-30T11:31:52;12.50;1.00
24450;DHT22;13349;50.984;5.822;2024-01-30T11:34:20;12.50;1.00
24450;DHT22;13349;50.984;5.822;2024-01-30T11:36:48;12.50;1.00
24450;DHT22;13349;50.984;5.822;2024-01-30T11:39:18;12.50;1.00
24450;DHT22;13349;50.984;5.822;2024-01-30T11:41:46;12.40;1.00
24450;DHT22;13349;50.984;5.822;2024-01-30T11:44:15;12.40;1.00
24450;DHT22;13349;50.984;5.822;2024-01-30T11:46:43;12.40;83.30
24450;DHT22;13349;50.984;5.822;2024-01-30T11:49:10;12.30;99.90
24450;DHT22;13349;50.984;5.822;2024-01-30T11:51:37;12.20;99.90
24450;DHT22;13349;50.984;5.822;2024-01-30T11:54:04;12.20;99.90
24450;DHT22;13349;50.984;5.822;2024-01-30T11:56:30;12.20;1.00
24450;DHT22;13349;50.984;5.822;2024-01-30T11:58:57;12.20;1.00
24450;DHT22;13349;50.984;5.822;2024-01-30T12:01:25;12.20;1.00
24450;DHT22;13349;50.984;5.822;2024-01-30T12:03:54;12.10;1.00
24450;DHT22;13349;50.984;5.822;2024-01-30T12:06:22;12.10;99.90
24450;DHT22;13349;50.984;5.822;2024-01-30T12:08:58;12.00;99.90
24450;DHT22;13349;50.984;5.822;2024-01-30T12:11:26;12.00;1.00
24450;DHT22;13349;50.984;5.822;2024-01-30T12:13:53;12.00;1.00
24450;DHT22;13349;50.984;5.822;2024-01-30T12:16:20;12.00;1.00
24450;DHT22;13349;50.984;5.822;2024-01-30T12:18:47;12.00;99.90
24450;DHT22;13349;50.984;5.822;2024-01-30T12:21:17;11.90;1.00
24450;DHT22;13349;50.984;5.822;2024-01-30T12:23:44;11.90;1.00
24450;DHT22;13349;50.984;5.822;2024-01-30T12:26:12;11.90;1.00
24450;DHT22;13349;50.984;5.822;2024-01-30T12:28:47;11.90;1.00
24450;DHT22;13349;50.984;5.822;2024-01-30T12:31:14;11.90;99.90
24450;DHT22;13349;50.984;5.822;2024-01-30T12:33:41;11.90;99.90
24450;DHT22;13349;50.984;5.822;2024-01-30T12:36:08;11.90;1.00
24450;DHT22;13349;50.984;5.822;2024-01-30T12:38:36;11.80;1.00
24450;DHT22;13349;50.984;5.822;2024-01-30T12:41:03;11.80;71.80
24450;DHT22;13349;50.984;5.822;2024-01-30T12:43:30;11.80;99.90
24450;DHT22;13349;50.984;5.822;2024-01-30T12:45:57;11.80;99.90
24450;DHT22;13349;50.984;5.822;2024-01-30T12:48:25;11.80;99.90
24450;DHT22;13349;50.984;5.822;2024-01-30T12:50:52;11.80;1.00
24450;DHT22;13349;50.984;5.822;2024-01-30T12:53:19;11.80;1.00
24450;DHT22;13349;50.984;5.822;2024-01-30T12:55:47;11.80;1.00
24450;DHT22;13349;50.984;5.822;2024-01-30T12:58:15;11.70;1.00
24450;DHT22;13349;50.984;5.822;2024-01-30T13:00:42;11.80;58.50
24450;DHT22;13349;50.984;5.822;2024-01-30T13:03:10;11.70;99.90
24450;DHT22;13349;50.984;5.822;2024-01-30T13:05:37;11.80;99.90
24450;DHT22;13349;50.984;5.822;2024-01-30T13:08:04;11.90;99.90
24450;DHT22;13349;50.984;5.822;2024-01-30T13:10:31;11.90;99.90
24450;DHT22;13349;50.984;5.822;2024-01-30T13:12:59;11.90;1.00
24450;DHT22;13349;50.984;5.822;2024-01-30T13:15:26;11.90;1.00
24450;DHT22;13349;50.984;5.822;2024-01-30T13:17:53;12.00;1.00
24450;DHT22;13349;50.984;5.822;2024-01-30T13:20:20;12.10;11.30
24450;DHT22;13349;50.984;5.822;2024-01-30T13:22:47;12.10;1.00
24450;DHT22;13349;50.984;5.822;2024-01-30T13:25:15;12.10;99.90
24450;DHT22;13349;50.984;5.822;2024-01-30T13:27:42;12.00;1.00
24450;DHT22;13349;50.984;5.822;2024-01-30T13:30:11;12.10;1.00
24450;DHT22;13349;50.984;5.822;2024-01-30T13:32:38;12.30;99.90
24450;DHT22;13349;50.984;5.822;2024-01-30T13:35:06;12.30;1.00
24450;DHT22;13349;50.984;5.822;2024-01-30T13:37:33;12.40;1.00
24450;DHT22;13349;50.984;5.822;2024-01-30T13:40:01;12.40;99.90
24450;DHT22;13349;50.984;5.822;2024-01-30T13:42:28;12.30;92.30
24450;DHT22;13349;50.984;5.822;2024-01-30T13:44:54;12.20;79.30
24450;DHT22;13349;50.984;5.822;2024-01-30T13:47:23;12.10;1.00
24450;DHT22;13349;50.984;5.822;2024-01-30T13:49:50;12.00;1.00
24450;DHT22;13349;50.984;5.822;2024-01-30T13:52:18;11.90;99.90
24450;DHT22;13349;50.984;5.822;2024-01-30T13:54:45;11.80;1.00
24450;DHT22;13349;50.984;5.822;2024-01-30T13:57:12;11.70;1.00
24450;DHT22;13349;50.984;5.822;2024-01-30T13:59:39;11.60;1.00
24450;DHT22;13349;50.984;5.822;2024-01-30T14:02:06;11.60;99.90
24450;DHT22;13349;50.984;5.822;2024-01-30T14:04:35;11.60;13.00
24450;DHT22;13349;50.984;5.822;2024-01-30T14:07:02;11.50;1.00
24450;DHT22;13349;50.984;5.822;2024-01-30T14:09:29;11.50;1.00
24450;DHT22;13349;50.984;5.822;2024-01-30T14:11:57;11.60;1.00
24450;DHT22;13349;50.984;5.822;2024-01-30T14:14:28;11.50;99.90
24450;DHT22;13349;50.984;5.822;2024-01-30T14:16:55;11.50;1.00
24450;DHT22;13349;50.984;5.822;2024-01-30T14:19:21;11.50;1.00
24450;DHT22;13349;50.984;5.822;2024-01-30T14:21:50;11.50;1.00
24450;DHT22;13349;50.984;5.822;2024-01-30T14:24:17;11.40;1.00
24450;DHT22;13349;50.984;5.822;2024-01-30T14:26:43;11.40;99.90
24450;DHT22;13349;50.984;5.822;2024-01-30T14:29:10;11.30;99.90
24450;DHT22;13349;50.984;5.822;2024-01-30T14:31:37;11.20;99.90
24450;DHT22;13349;50.984;5.822;2024-01-30T14:34:05;11.30;99.90
24450;DHT22;13349;50.984;5.822;2024-01-30T14:36:32;11.20;73.70
24450;DHT22;13349;50.984;5.822;2024-01-30T14:39:00;11.20;33.00
24450;DHT22;13349;50.984;5.822;2024-01-30T14:41:27;11.20;1.00
24450;DHT22;13349;50.984;5.822;2024-01-30T14:43:54;11.20;1.00
24450;DHT22;13349;50.984;5.822;2024-01-30T14:46:21;11.20;1.00
24450;DHT22;13349;50.984;5.822;2024-01-30T14:48:48;11.30;1.00
24450;DHT22;13349;50.984;5.822;2024-01-30T14:51:17;11.40;1.00
24450;DHT22;13349;50.984;5.822;2024-01-30T14:53:44;11.30;1.00
24450;DHT22;13349;50.984;5.822;2024-01-30T14:56:12;11.30;1.00
24450;DHT22;13349;50.984;5.822;2024-01-30T14:58:39;11.20;1.00
24450;DHT22;13349;50.984;5.822;2024-01-30T15:01:06;11.10;1.00
24450;DHT22;13349;50.984;5.822;2024-01-30T15:03:33;11.30;1.00
24450;DHT22;13349;50.984;5.822;2024-01-30T15:06:01;11.50;99.90
24450;DHT22;13349;50.984;5.822;2024-01-30T15:08:30;11.50;99.90
24450;DHT22;13349;50.984;5.822;2024-01-30T15:10:58;11.50;99.90
24450;DHT22;13349;50.984;5.822;2024-01-30T15:13:26;11.40;99.90
24450;DHT22;13349;50.984;5.822;2024-01-30T15:15:53;11.60;75.30
24450;DHT22;13349;50.984;5.822;2024-01-30T15:18:20;11.80;1.00
24450;DHT22;13349;50.984;5.822;2024-01-30T15:20:47;11.90;1.00
24450;DHT22;13349;50.984;5.822;2024-01-30T15:23:14;12.00;1.00
24450;DHT22;13349;50.984;5.822;2024-01-30T15:25:42;12.00;1.00
24450;DHT22;13349;50.984;5.822;2024-01-30T15:28:09;12.10;1.00
24450;DHT22;13349;50.984;5.822;2024-01-30T15:30:37;12.00;1.00
24450;DHT22;13349;50.984;5.822;2024-01-30T15:33:04;11.80;1.00
24450;DHT22;13349;50.984;5.822;2024-01-30T15:35:32;11.90;1.00
24450;DHT22;13349;50.984;5.822;2024-01-30T15:37:59;11.90;1.00
24450;DHT22;13349;50.984;5.822;2024-01-30T15:40:26;11.80;1.00
24450;DHT22;13349;50.984;5.822;2024-01-30T15:42:53;11.70;1.00